Saint-Georges, Canada
Current Conditions -  °F | °C
As of 7:00 PM on Thursday 27 Nov 2014 (Local Time) from CYQB Reporting Station
Scattered Clouds Scattered Clouds  
Wind Chill: 19°   Ceiling: Unl
Heat Index: 25°   Visibility: 15mi
Dew Point: 14°   Wind: 5mph
Humidity: 64%   Direction: 330°NNW
Pressure: 30"   Gusts: NA
Location:  46.12°N, 70.67°W
Report Text: CYQB 280000Z 33004KT 270V350 15SM FEW030 SCT160 M04/M10 A3000 RMK SC1AC3 SLP164
Loading
Personal Weather Stations






























Interactive Weather Map New forecast layout! Learn more

10-Day Weather Forecast

Advertisements
Track Severe Weather on mobile